Time;durP1;ratioP1;P1;durP2;ratioP2;P2;SDS_P1;SDS_P2;PMS_P1;PMS_P2;Temp;Humidity;BMP_temperature;BMP_pressure;BME280_temperature;BME280_humidity;BME280_pressure;Samples;Min_cycle;Max_cycle;Signal;HPM_P1;HPM_P2
2023/05/16 00:01:49;;;;;;;4.53;3.70;;;17.90;53.10;;;;;;6180446;22;19998;-54
2023/05/16 00:04:16;;;;;;;5.43;4.47;;;17.80;53.20;;;;;;6180393;22;20013;-53
2023/05/16 00:06:42;;;;;;;5.13;3.83;;;17.80;53.40;;;;;;6180427;22;20005;-48
2023/05/16 00:09:07;;;;;;;4.80;3.95;;;17.80;53.40;;;;;;6179898;22;20065;-53
2023/05/16 00:11:33;;;;;;;5.85;4.13;;;17.70;53.50;;;;;;6180293;22;20008;-50
2023/05/16 00:14:00;;;;;;;6.15;4.50;;;17.70;53.90;;;;;;6180593;22;20425;-56
2023/05/16 00:16:28;;;;;;;7.00;4.38;;;17.70;54.10;;;;;;6180628;22;20004;-52
2023/05/16 00:18:56;;;;;;;6.40;4.28;;;17.70;54.10;;;;;;6180096;22;19997;-54
2023/05/16 00:21:22;;;;;;;5.32;3.88;;;17.60;55.10;;;;;;6179978;22;20016;-51
2023/05/16 00:23:48;;;;;;;6.55;3.95;;;17.60;54.70;;;;;;6180006;22;20009;-54
2023/05/16 00:26:14;;;;;;;4.93;4.43;;;17.60;54.90;;;;;;6180798;22;20585;-52
2023/05/16 00:28:39;;;;;;;7.13;4.00;;;17.60;54.90;;;;;;6180543;22;20025;-54
2023/05/16 00:31:05;;;;;;;4.57;3.95;;;17.60;54.40;;;;;;6179869;22;20009;-54
2023/05/16 00:33:31;;;;;;;5.72;4.22;;;17.50;54.30;;;;;;6180752;22;20005;-52
2023/05/16 00:35:56;;;;;;;9.63;4.60;;;17.50;54.10;;;;;;6179814;22;20023;-53
2023/05/16 00:38:23;;;;;;;5.63;4.50;;;17.50;53.90;;;;;;6179706;22;20068;-52
2023/05/16 00:40:49;;;;;;;4.35;3.83;;;17.50;54.00;;;;;;6179258;22;20044;-53
2023/05/16 00:43:15;;;;;;;5.68;4.40;;;17.50;54.30;;;;;;6180426;22;20005;-51
2023/05/16 00:45:40;;;;;;;5.50;3.92;;;17.40;54.40;;;;;;6180588;22;20005;-52
2023/05/16 00:48:08;;;;;;;5.28;4.00;;;17.40;54.40;;;;;;6179635;22;20126;-52
2023/05/16 00:50:34;;;;;;;5.65;4.10;;;17.40;54.70;;;;;;6180016;22;20302;-53
2023/05/16 00:52:59;;;;;;;6.10;4.43;;;17.40;54.90;;;;;;6180931;22;20328;-55
2023/05/16 00:55:25;;;;;;;5.95;3.72;;;17.40;55.20;;;;;;6179568;22;20028;-53
2023/05/16 00:57:51;;;;;;;6.32;4.28;;;17.40;55.30;;;;;;6179892;22;20001;-55
2023/05/16 01:00:18;;;;;;;6.95;4.18;;;17.40;55.00;;;;;;6179293;22;20009;-54
2023/05/16 01:02:45;;;;;;;6.22;4.18;;;17.40;54.60;;;;;;6284235;22;20009;-52
2023/05/16 01:05:10;;;;;;;4.85;4.30;;;17.40;54.70;;;;;;6180447;22;20345;-54
2023/05/16 01:07:36;;;;;;;5.97;4.00;;;17.30;54.80;;;;;;6179442;22;20010;-53
2023/05/16 01:10:06;;;;;;;5.97;4.30;;;17.30;55.40;;;;;;6179213;22;20005;-53
2023/05/16 01:12:55;;;;;;;5.30;4.10;;;17.30;54.80;;;;;;6179777;22;20005;-54
2023/05/16 01:15:46;;;;;;;5.43;4.15;;;17.30;55.00;;;;;;6178297;23;20005;-53
2023/05/16 01:18:24;;;;;;;5.20;4.55;;;17.30;55.50;;;;;;6179329;22;20012;-54
2023/05/16 01:21:00;;;;;;;7.50;5.70;;;17.20;55.50;;;;;;6180594;22;20498;-52
2023/05/16 01:23:29;;;;;;;6.20;5.03;;;17.20;55.70;;;;;;6181004;22;20078;-56
2023/05/16 01:26:26;;;;;;;7.35;5.57;;;17.10;55.90;;;;;;6180607;22;20009;-53
2023/05/16 01:28:53;;;;;;;10.40;6.82;;;17.10;56.00;;;;;;6179982;22;20025;-51
2023/05/16 01:31:20;;;;;;;12.43;7.82;;;17.10;56.10;;;;;;6181253;22;20023;-53
2023/05/16 01:33:46;;;;;;;13.20;8.90;;;17.00;55.80;;;;;;6180752;22;19998;-50
2023/05/16 01:36:25;;;;;;;11.75;8.18;;;17.00;55.70;;;;;;6180830;22;20012;-54
2023/05/16 01:39:10;;;;;;;15.15;10.38;;;17.00;55.90;;;;;;6178627;22;20009;-55
2023/05/16 01:41:42;;;;;;;19.17;11.50;;;17.00;56.50;;;;;;6180578;22;20363;-54
2023/05/16 01:44:16;;;;;;;19.60;11.65;;;16.90;57.20;;;;;;6180763;22;20001;-54
2023/05/16 01:46:45;;;;;;;15.38;10.38;;;16.90;57.10;;;;;;6179856;22;20001;-53
2023/05/16 01:49:36;;;;;;;16.70;11.10;;;16.80;57.30;;;;;;6180330;22;20076;-51
2023/05/16 01:52:09;;;;;;;18.13;10.60;;;16.80;57.50;;;;;;6182994;22;20009;-52
2023/05/16 01:54:41;;;;;;;17.75;11.10;;;16.80;57.60;;;;;;6179392;22;20035;-53
2023/05/16 01:57:08;;;;;;;14.68;9.38;;;16.70;57.70;;;;;;6179647;22;19997;-52
2023/05/16 01:59:34;;;;;;;17.00;10.18;;;16.70;58.10;;;;;;6180568;22;20009;-55
2023/05/16 02:02:01;;;;;;;13.10;9.82;;;16.70;58.40;;;;;;6181376;22;20001;-52
2023/05/16 02:04:26;;;;;;;16.73;10.07;;;16.70;58.50;;;;;;6181563;22;20015;-53
2023/05/16 02:06:52;;;;;;;15.25;10.30;;;16.70;58.60;;;;;;6180704;22;20492;-53
2023/05/16 02:09:18;;;;;;;19.55;13.73;;;16.70;58.50;;;;;;6181429;22;20382;-52
2023/05/16 02:11:45;;;;;;;18.50;12.35;;;16.60;57.70;;;;;;6181172;22;20024;-53
2023/05/16 02:14:10;;;;;;;18.95;10.73;;;16.60;57.10;;;;;;6181287;22;19997;-53
2023/05/16 02:16:36;;;;;;;16.13;9.90;;;16.60;56.70;;;;;;6181631;22;20002;-50
2023/05/16 02:19:02;;;;;;;15.18;10.95;;;16.60;56.60;;;;;;6180567;22;20351;-52
2023/05/16 02:21:27;;;;;;;18.95;12.00;;;16.60;56.60;;;;;;6180927;22;20147;-52
2023/05/16 02:23:53;;;;;;;15.20;11.02;;;16.60;57.00;;;;;;6181328;22;20032;-53
2023/05/16 02:26:19;;;;;;;10.43;8.90;;;16.60;57.10;;;;;;6180702;22;20009;-53
2023/05/16 02:28:45;;;;;;;10.68;8.18;;;16.60;56.70;;;;;;6181422;22;20005;-51
2023/05/16 02:31:10;;;;;;;13.52;8.38;;;16.60;56.20;;;;;;6180803;22;20009;-53
2023/05/16 02:33:36;;;;;;;10.82;7.80;;;16.60;56.10;;;;;;6180655;22;20083;-55
2023/05/16 02:36:02;;;;;;;12.85;7.57;;;16.60;56.10;;;;;;6181045;22;20009;-51
2023/05/16 02:38:28;;;;;;;9.13;7.63;;;16.70;56.00;;;;;;6181856;22;20005;-52
2023/05/16 02:40:53;;;;;;;8.40;7.15;;;16.70;56.00;;;;;;6180595;22;20067;-51
2023/05/16 02:43:19;;;;;;;10.43;7.57;;;16.70;56.20;;;;;;6181268;22;20012;-50
2023/05/16 02:45:44;;;;;;;8.57;7.30;;;16.70;56.30;;;;;;6180794;22;20008;-52
2023/05/16 02:48:10;;;;;;;13.18;8.25;;;16.70;56.30;;;;;;6180740;22;20009;-54
2023/05/16 02:50:39;;;;;;;10.18;8.48;;;16.70;56.30;;;;;;6181621;22;20044;-53
2023/05/16 02:53:04;;;;;;;10.55;8.68;;;16.80;56.20;;;;;;6181709;22;20028;-52
2023/05/16 02:55:30;;;;;;;10.07;8.60;;;16.80;56.10;;;;;;6180751;22;20002;-54
2023/05/16 02:57:55;;;;;;;14.80;9.40;;;16.80;56.20;;;;;;6181034;22;20028;-51
2023/05/16 03:00:21;;;;;;;15.73;11.23;;;16.80;56.10;;;;;;6180506;22;20516;-50
2023/05/16 03:02:47;;;;;;;14.85;12.38;;;16.80;56.10;;;;;;6180545;22;20012;-52
2023/05/16 03:05:13;;;;;;;14.65;13.07;;;16.80;56.10;;;;;;6181076;22;20506;-52
2023/05/16 03:07:39;;;;;;;14.52;13.07;;;16.80;56.00;;;;;;6179974;22;20005;-52
2023/05/16 03:10:05;;;;;;;22.77;13.68;;;16.90;55.90;;;;;;6284922;22;20020;-55
2023/05/16 03:12:31;;;;;;;14.10;12.70;;;16.90;55.70;;;;;;6180857;22;20005;-54
2023/05/16 03:14:57;;;;;;;15.70;12.60;;;17.00;55.80;;;;;;6180288;22;20080;-52
2023/05/16 03:17:22;;;;;;;13.88;11.52;;;17.00;55.70;;;;;;6181257;22;20001;-52
2023/05/16 03:19:48;;;;;;;11.88;9.25;;;17.00;55.70;;;;;;6181062;22;20374;-54
2023/05/16 03:22:14;;;;;;;11.93;8.75;;;17.10;55.40;;;;;;6180783;22;20037;-50
2023/05/16 03:24:39;;;;;;;9.07;8.00;;;17.20;55.40;;;;;;6180139;22;20005;-52
2023/05/16 03:27:05;;;;;;;9.98;7.00;;;17.20;55.90;;;;;;6180936;22;20030;-55
2023/05/16 03:29:31;;;;;;;10.02;7.60;;;17.20;55.30;;;;;;6180186;22;20012;-53
2023/05/16 03:31:57;;;;;;;10.10;7.00;;;17.30;55.20;;;;;;6180334;22;20005;-55
2023/05/16 03:34:22;;;;;;;9.55;6.90;;;17.40;55.20;;;;;;6181060;22;20059;-55
2023/05/16 03:36:49;;;;;;;8.35;6.80;;;17.40;54.90;;;;;;6177986;22;20367;-52
2023/05/16 03:39:15;;;;;;;7.30;6.43;;;17.40;54.70;;;;;;6179190;22;20028;-51
2023/05/16 03:41:41;;;;;;;7.78;6.80;;;17.50;54.70;;;;;;6179048;22;20005;-52
2023/05/16 03:44:07;;;;;;;8.45;6.68;;;17.50;54.50;;;;;;6179597;23;20017;-53
2023/05/16 03:46:33;;;;;;;9.63;6.28;;;17.50;54.50;;;;;;6283835;22;20006;-54
2023/05/16 03:48:59;;;;;;;7.25;6.05;;;17.60;54.50;;;;;;6179831;22;20011;-52
2023/05/16 03:51:24;;;;;;;10.52;5.72;;;17.60;54.80;;;;;;6179845;22;20005;-52
2023/05/16 03:53:50;;;;;;;6.93;5.10;;;17.70;55.20;;;;;;6180045;22;20452;-57
2023/05/16 03:56:16;;;;;;;8.40;5.63;;;17.70;54.80;;;;;;6179688;22;20007;-54
2023/05/16 03:58:41;;;;;;;9.55;5.78;;;17.70;54.40;;;;;;6179652;22;20001;-53
2023/05/16 04:01:07;;;;;;;5.25;4.68;;;17.80;54.00;;;;;;6180005;22;20076;-51
2023/05/16 04:03:33;;;;;;;7.05;4.95;;;17.80;53.70;;;;;;6179225;22;20088;-53
2023/05/16 04:05:58;;;;;;;7.72;4.53;;;17.80;53.80;;;;;;6179901;22;20043;-55
2023/05/16 04:08:24;;;;;;;6.05;4.50;;;17.90;53.70;;;;;;6179704;22;20081;-54
2023/05/16 04:10:50;;;;;;;6.07;4.80;;;17.90;53.50;;;;;;6180497;22;20009;-53
2023/05/16 04:13:16;;;;;;;6.40;4.57;;;18.00;53.30;;;;;;6179400;22;20329;-54
2023/05/16 04:15:42;;;;;;;7.95;4.78;;;18.00;53.50;;;;;;6179394;22;20318;-53
2023/05/16 04:18:08;;;;;;;7.75;4.90;;;18.00;53.30;;;;;;6179053;22;20002;-54
2023/05/16 04:20:35;;;;;;;6.07;4.43;;;18.00;53.00;;;;;;6179932;22;20057;-52
2023/05/16 04:23:00;;;;;;;6.60;5.00;;;18.00;52.80;;;;;;6178868;22;20012;-52
2023/05/16 04:25:26;;;;;;;6.05;4.43;;;18.00;52.80;;;;;;6178772;22;20005;-52
2023/05/16 04:27:52;;;;;;;6.43;4.88;;;18.00;53.00;;;;;;6178498;22;20009;-54
2023/05/16 04:30:18;;;;;;;6.60;4.70;;;18.00;53.00;;;;;;6175285;22;20023;-53
2023/05/16 04:32:43;;;;;;;6.50;4.30;;;18.10;53.20;;;;;;6176244;22;20032;-56
2023/05/16 04:35:09;;;;;;;6.70;4.38;;;18.10;53.20;;;;;;6176829;22;19997;-55
2023/05/16 04:37:36;;;;;;;7.43;4.50;;;18.00;53.10;;;;;;6176471;22;20001;-53
2023/05/16 04:40:01;;;;;;;10.70;4.80;;;18.10;53.10;;;;;;6176755;22;20001;-54
2023/05/16 04:42:27;;;;;;;7.95;4.60;;;18.10;53.00;;;;;;6176520;22;20016;-52
2023/05/16 04:44:53;;;;;;;8.65;4.82;;;18.10;52.90;;;;;;6176663;22;20044;-54
2023/05/16 04:47:18;;;;;;;5.07;4.30;;;18.10;52.90;;;;;;6178320;22;20013;-52
2023/05/16 04:49:44;;;;;;;6.65;4.40;;;18.10;53.00;;;;;;6178664;22;20087;-55
2023/05/16 04:52:10;;;;;;;5.65;4.05;;;18.10;52.80;;;;;;6178068;22;20001;-51
2023/05/16 04:54:37;;;;;;;6.95;4.10;;;18.10;52.70;;;;;;6178846;22;20381;-54
2023/05/16 04:57:03;;;;;;;6.13;3.92;;;18.10;52.60;;;;;;6178031;22;20001;-51
2023/05/16 04:59:29;;;;;;;7.30;4.65;;;18.10;52.60;;;;;;6177643;23;20006;-52
2023/05/16 05:01:54;;;;;;;6.95;4.30;;;18.10;52.60;;;;;;6281939;22;20005;-55
2023/05/16 05:04:21;;;;;;;5.93;4.43;;;18.20;52.60;;;;;;6178121;22;19997;-53
2023/05/16 05:06:47;;;;;;;10.23;4.80;;;18.20;52.60;;;;;;6178458;22;20001;-54
2023/05/16 05:09:12;;;;;;;7.20;4.57;;;18.20;52.40;;;;;;6178487;22;20005;-52
2023/05/16 05:11:38;;;;;;;8.57;4.75;;;18.30;52.30;;;;;;6178937;22;20005;-55
2023/05/16 05:14:04;;;;;;;7.18;4.80;;;18.30;52.20;;;;;;6178122;22;20088;-55
2023/05/16 05:16:29;;;;;;;10.93;5.43;;;18.40;52.20;;;;;;6176729;22;20422;-54
2023/05/16 05:18:55;;;;;;;8.82;5.93;;;18.40;52.10;;;;;;6176522;22;20020;-53
2023/05/16 05:21:22;;;;;;;16.40;6.18;;;18.40;51.80;;;;;;6177380;22;20016;-53
2023/05/16 05:23:48;;;;;;;9.18;5.85;;;18.40;51.80;;;;;;6177120;22;20423;-53
2023/05/16 05:26:14;;;;;;;14.00;7.15;;;18.40;51.80;;;;;;6175298;22;20062;-54
2023/05/16 05:28:40;;;;;;;12.55;7.60;;;18.40;51.60;;;;;;6174359;22;20001;-53
2023/05/16 05:31:06;;;;;;;14.30;6.45;;;18.40;51.60;;;;;;6176148;22;20021;-54
2023/05/16 05:33:32;;;;;;;11.75;7.20;;;18.40;51.90;;;;;;6175287;22;20028;-53
2023/05/16 05:35:58;;;;;;;12.70;7.20;;;18.40;51.90;;;;;;6178022;22;20008;-55
2023/05/16 05:38:24;;;;;;;14.75;7.35;;;18.40;51.90;;;;;;6175132;22;20085;-54
2023/05/16 05:40:50;;;;;;;18.58;9.15;;;18.40;52.10;;;;;;6176732;22;20005;-53
2023/05/16 05:43:15;;;;;;;11.82;7.85;;;18.50;52.10;;;;;;6173171;22;20008;-54
2023/05/16 05:45:41;;;;;;;20.42;11.88;;;18.50;52.30;;;;;;6175263;22;20336;-55
2023/05/16 05:48:07;;;;;;;18.38;11.15;;;18.50;52.20;;;;;;6273506;22;20425;-55
2023/05/16 05:50:33;;;;;;;20.85;12.40;;;18.60;51.90;;;;;;6174548;22;20088;-55
2023/05/16 05:52:58;;;;;;;18.35;11.82;;;18.60;51.90;;;;;;6173207;22;20041;-55
2023/05/16 05:55:25;;;;;;;20.42;11.88;;;18.60;51.80;;;;;;6172795;22;20001;-54
2023/05/16 05:57:51;;;;;;;23.35;14.02;;;18.70;51.80;;;;;;6173720;22;20005;-51
2023/05/16 06:00:16;;;;;;;21.17;14.50;;;18.70;51.50;;;;;;6174103;23;20012;-52
2023/05/16 06:02:42;;;;;;;24.45;13.98;;;18.80;51.40;;;;;;6175507;22;20016;-54
2023/05/16 06:05:08;;;;;;;30.05;13.98;;;18.80;51.70;;;;;;6174442;22;20005;-53
2023/05/16 06:07:34;;;;;;;19.05;12.52;;;18.80;51.50;;;;;;6176001;22;20048;-52
2023/05/16 06:10:03;;;;;;;20.95;12.82;;;18.80;51.30;;;;;;6173704;22;20005;-54
2023/05/16 06:12:29;;;;;;;23.25;13.18;;;18.90;51.00;;;;;;6175922;22;20005;-51
2023/05/16 06:14:55;;;;;;;22.73;14.05;;;18.90;50.80;;;;;;6175152;23;20030;-49
2023/05/16 06:17:20;;;;;;;19.42;12.38;;;18.90;51.00;;;;;;6175970;22;20433;-56
2023/05/16 06:19:46;;;;;;;18.25;11.60;;;18.90;51.70;;;;;;6174693;22;20091;-52
2023/05/16 06:22:12;;;;;;;20.20;13.02;;;19.00;51.50;;;;;;6173929;22;20024;-56
2023/05/16 06:24:37;;;;;;;20.48;12.73;;;19.00;51.10;;;;;;6171863;22;20013;-54
2023/05/16 06:27:03;;;;;;;21.27;12.38;;;19.00;51.00;;;;;;6171680;22;20070;-57
2023/05/16 06:29:29;;;;;;;22.85;14.00;;;19.00;51.30;;;;;;6171155;22;20009;-57
2023/05/16 06:31:55;;;;;;;23.48;13.35;;;19.00;51.20;;;;;;6171539;22;20025;-56
2023/05/16 06:34:26;;;;;;;20.85;13.40;;;19.00;51.60;;;;;;6169754;22;20029;-53
2023/05/16 06:36:52;;;;;;;21.48;13.52;;;19.10;51.70;;;;;;6168726;22;20013;-54
2023/05/16 06:39:17;;;;;;;25.23;14.20;;;19.10;51.70;;;;;;6169252;22;20781;-52
2023/05/16 06:41:44;;;;;;;16.55;9.90;;;19.20;51.50;;;;;;6169215;22;20077;-54
2023/05/16 06:44:10;;;;;;;16.30;9.20;;;19.20;50.80;;;;;;6172857;22;20006;-55
2023/05/16 06:46:37;;;;;;;18.42;8.85;;;19.30;50.60;;;;;;6173963;22;20012;-54
2023/05/16 06:49:03;;;;;;;24.45;10.00;;;19.30;50.40;;;;;;6173519;22;20001;-55
2023/05/16 06:51:29;;;;;;;12.55;7.40;;;19.30;50.40;;;;;;6171405;22;20012;-55
2023/05/16 06:53:54;;;;;;;13.95;7.47;;;19.40;50.30;;;;;;6170863;22;20001;-56
2023/05/16 06:56:20;;;;;;;10.68;7.25;;;19.50;50.10;;;;;;6169143;22;20091;-54
2023/05/16 06:58:46;;;;;;;12.27;6.70;;;19.60;50.10;;;;;;6168436;22;20009;-55
2023/05/16 07:01:11;;;;;;;9.00;6.10;;;19.60;50.00;;;;;;6166200;22;20076;-55
2023/05/16 07:03:37;;;;;;;7.88;5.63;;;19.70;50.00;;;;;;6167947;22;20050;-54
2023/05/16 07:06:03;;;;;;;7.45;5.25;;;19.80;50.00;;;;;;6167487;22;20118;-53
2023/05/16 07:08:28;;;;;;;11.82;5.70;;;19.90;50.30;;;;;;6164602;22;20005;-57
2023/05/16 07:10:54;;;;;;;8.43;5.05;;;19.90;50.20;;;;;;6165634;22;20005;-55
2023/05/16 07:13:20;;;;;;;5.03;4.15;;;20.00;50.70;;;;;;6165440;22;20005;-54
2023/05/16 07:15:45;;;;;;;5.40;4.40;;;20.00;50.50;;;;;;6167060;22;20073;-55
2023/05/16 07:18:11;;;;;;;5.82;3.88;;;20.00;50.80;;;;;;6167299;22;20008;-55
2023/05/16 07:20:37;;;;;;;7.30;4.32;;;20.00;50.90;;;;;;6167377;22;20031;-56
2023/05/16 07:23:03;;;;;;;8.55;4.25;;;20.00;50.70;;;;;;6166078;22;20012;-58
2023/05/16 07:25:29;;;;;;;8.05;4.10;;;19.90;50.50;;;;;;6165399;22;20418;-56
2023/05/16 07:27:55;;;;;;;6.43;4.82;;;19.90;50.40;;;;;;6166657;22;20005;-59
2023/05/16 07:30:20;;;;;;;5.65;4.30;;;19.90;50.50;;;;;;6168325;22;20017;-54
2023/05/16 07:32:46;;;;;;;5.60;4.07;;;19.90;50.40;;;;;;6166069;22;20008;-55
2023/05/16 07:35:12;;;;;;;6.43;4.22;;;19.90;50.30;;;;;;6160675;23;20027;-56
2023/05/16 07:37:40;;;;;;;7.53;4.70;;;19.90;50.10;;;;;;6162942;22;20008;-57
2023/05/16 07:40:06;;;;;;;8.07;4.03;;;19.90;50.10;;;;;;6162433;22;20663;-57
2023/05/16 07:42:32;;;;;;;6.57;4.45;;;19.90;50.40;;;;;;6162930;22;20005;-56
2023/05/16 07:44:58;;;;;;;6.90;4.28;;;19.90;50.50;;;;;;6161463;22;20009;-58
2023/05/16 07:47:24;;;;;;;8.68;4.43;;;19.90;50.30;;;;;;6160316;22;20005;-58
2023/05/16 07:49:50;;;;;;;8.60;4.90;;;19.90;49.80;;;;;;6162101;22;20072;-56
2023/05/16 07:52:16;;;;;;;7.60;5.05;;;19.90;49.60;;;;;;6261753;22;21044;-56
2023/05/16 07:54:41;;;;;;;8.77;4.72;;;19.90;49.50;;;;;;6156560;22;20005;-57
2023/05/16 07:57:07;;;;;;;13.50;6.55;;;19.90;49.60;;;;;;6164718;22;20131;-56
2023/05/16 07:59:33;;;;;;;10.65;6.60;;;19.90;50.10;;;;;;6157620;22;20001;-55
2023/05/16 08:01:59;;;;;;;12.30;7.80;;;19.90;50.20;;;;;;6158402;23;20005;-56
2023/05/16 08:04:24;;;;;;;11.23;7.25;;;19.90;50.50;;;;;;6158474;22;20001;-55
2023/05/16 08:06:50;;;;;;;14.90;8.07;;;19.90;51.50;;;;;;6155051;22;20092;-56
2023/05/16 08:09:16;;;;;;;14.82;9.40;;;19.80;51.90;;;;;;6262963;22;20071;-57
2023/05/16 08:11:44;;;;;;;24.35;14.48;;;19.80;52.00;;;;;;6158793;22;20107;-53
2023/05/16 08:14:10;;;;;;;26.13;15.20;;;19.80;51.60;;;;;;6154354;22;20095;-57
2023/05/16 08:16:36;;;;;;;23.98;14.43;;;19.70;51.70;;;;;;6152078;22;20036;-54
2023/05/16 08:19:01;;;;;;;30.42;17.95;;;19.70;52.30;;;;;;6160001;22;20005;-58
2023/05/16 08:21:27;;;;;;;36.47;19.83;;;19.70;52.60;;;;;;6160844;22;20691;-56
2023/05/16 08:23:53;;;;;;;32.13;18.95;;;19.60;52.50;;;;;;6158791;22;20009;-57
2023/05/16 08:26:20;;;;;;;32.38;18.13;;;19.60;52.60;;;;;;6165849;22;20389;-53
2023/05/16 08:28:46;;;;;;;19.48;12.63;;;19.60;52.50;;;;;;6163761;22;20362;-54
2023/05/16 08:31:12;;;;;;;19.02;11.98;;;19.60;52.30;;;;;;6153904;22;20094;-55
2023/05/16 08:33:37;;;;;;;20.05;11.60;;;19.50;52.40;;;;;;6162769;22;20001;-54
2023/05/16 08:36:04;;;;;;;15.65;9.25;;;19.40;52.40;;;;;;6163340;22;19997;-57
2023/05/16 08:38:29;;;;;;;11.15;7.78;;;19.40;52.50;;;;;;6159644;22;20015;-58
2023/05/16 08:40:55;;;;;;;9.93;5.85;;;19.30;52.40;;;;;;6158187;22;20012;-57
2023/05/16 08:43:21;;;;;;;7.00;5.25;;;19.30;52.30;;;;;;6163116;22;20417;-56
2023/05/16 08:45:47;;;;;;;6.28;4.13;;;19.30;52.10;;;;;;6162287;22;20031;-55
2023/05/16 08:48:15;;;;;;;5.00;3.60;;;19.30;51.90;;;;;;6165651;22;20015;-54
2023/05/16 08:50:42;;;;;;;6.60;3.65;;;19.30;51.90;;;;;;6159655;22;20139;-57
2023/05/16 08:53:10;;;;;;;8.32;4.38;;;19.30;52.20;;;;;;6158907;22;20134;-54
2023/05/16 08:55:38;;;;;;;7.60;3.70;;;19.20;52.40;;;;;;6156762;22;20012;-53
2023/05/16 08:58:04;;;;;;;6.68;4.30;;;19.30;52.50;;;;;;6159913;22;20447;-54
2023/05/16 09:00:30;;;;;;;5.38;3.70;;;19.30;53.30;;;;;;6154413;22;20005;-56
2023/05/16 09:02:57;;;;;;;5.72;4.40;;;19.30;53.70;;;;;;6157379;22;20024;-56
2023/05/16 09:05:23;;;;;;;7.20;4.32;;;19.30;53.80;;;;;;6154455;22;20425;-57
2023/05/16 09:07:49;;;;;;;6.15;4.10;;;19.30;53.80;;;;;;6159929;22;20012;-54
2023/05/16 09:10:15;;;;;;;4.80;3.92;;;19.30;53.70;;;;;;6156709;22;20392;-53
2023/05/16 09:12:41;;;;;;;7.07;4.20;;;19.40;53.60;;;;;;6163177;22;20001;-58
2023/05/16 09:15:09;;;;;;;8.13;4.22;;;19.40;52.90;;;;;;6166186;22;20107;-55
2023/05/16 09:17:41;;;;;;;8.20;5.20;;;19.50;52.30;;;;;;6160895;22;20376;-55
2023/05/16 09:20:18;;;;;;;8.57;4.70;;;19.50;51.60;;;;;;6158866;22;20009;-57
2023/05/16 09:22:54;;;;;;;8.70;4.90;;;19.50;51.30;;;;;;6160442;22;20074;-56
2023/05/16 09:25:21;;;;;;;19.85;6.05;;;19.50;51.80;;;;;;6162785;22;20016;-54
2023/05/16 09:27:47;;;;;;;11.32;6.03;;;19.50;51.20;;;;;;6162831;22;20503;-56
2023/05/16 09:30:20;;;;;;;7.88;5.00;;;19.60;51.40;;;;;;6163640;22;20009;-56
2023/05/16 09:32:45;;;;;;;9.35;4.95;;;19.60;51.40;;;;;;6162525;23;20541;-54
2023/05/16 09:35:16;;;;;;;4.82;4.22;;;19.60;51.50;;;;;;6163042;22;20005;-55
2023/05/16 09:37:53;;;;;;;6.10;4.03;;;19.50;51.70;;;;;;6162662;22;20005;-52
2023/05/16 09:40:22;;;;;;;12.43;7.05;;;19.50;51.90;;;;;;6165017;22;20447;-53
2023/05/16 09:43:04;;;;;;;7.13;4.63;;;19.50;52.10;;;;;;6166607;22;20416;-57
2023/05/16 09:45:31;;;;;;;5.22;3.78;;;19.50;52.40;;;;;;6160639;22;20410;-58
2023/05/16 09:48:13;;;;;;;4.90;4.07;;;19.50;52.40;;;;;;6164282;22;20036;-52
2023/05/16 09:50:41;;;;;;;7.38;4.13;;;19.50;52.10;;;;;;6165119;22;20486;-56
2023/05/16 09:53:06;;;;;;;10.80;4.45;;;19.50;52.10;;;;;;6167131;22;20080;-54
2023/05/16 09:55:32;;;;;;;7.40;4.35;;;19.50;52.10;;;;;;6160615;22;20076;-54
2023/05/16 09:57:58;;;;;;;7.47;4.55;;;19.60;51.80;;;;;;6163632;22;20001;-57
2023/05/16 10:00:33;;;;;;;6.78;4.45;;;19.60;51.80;;;;;;6161887;22;20016;-57
2023/05/16 10:03:01;;;;;;;7.10;4.22;;;19.60;51.50;;;;;;6157835;22;20425;-53
2023/05/16 10:05:27;;;;;;;7.57;5.03;;;19.60;51.90;;;;;;6159667;23;20332;-56
2023/05/16 10:07:56;;;;;;;8.32;4.55;;;19.70;52.00;;;;;;6165309;22;20012;-54
2023/05/16 10:10:24;;;;;;;6.10;4.78;;;19.70;51.90;;;;;;6165081;22;20005;-55
2023/05/16 10:12:50;;;;;;;6.13;4.82;;;19.70;51.90;;;;;;6165064;22;20436;-57
2023/05/16 10:15:17;;;;;;;13.52;9.13;;;19.80;52.20;;;;;;6164157;22;20035;-57
2023/05/16 10:17:48;;;;;;;23.98;11.35;;;19.80;52.10;;;;;;6164619;22;20005;-54
2023/05/16 10:20:14;;;;;;;23.48;15.18;;;19.80;51.90;;;;;;6163803;22;20337;-55
2023/05/16 10:22:43;;;;;;;26.85;16.38;;;19.90;51.40;;;;;;6165328;22;20032;-53
2023/05/16 10:25:24;;;;;;;26.40;16.50;;;19.90;51.50;;;;;;6160007;22;20012;-56
2023/05/16 10:27:51;;;;;;;26.83;16.13;;;19.90;50.90;;;;;;6165016;22;20430;-54
2023/05/16 10:30:17;;;;;;;29.35;17.50;;;19.90;50.90;;;;;;6162171;22;20019;-54
2023/05/16 10:32:45;;;;;;;27.20;16.55;;;20.00;50.70;;;;;;6160729;22;20009;-53
2023/05/16 10:35:10;;;;;;;41.75;25.80;;;20.00;50.70;;;;;;6168016;22;20000;-55
2023/05/16 10:37:37;;;;;;;50.72;26.75;;;20.00;50.70;;;;;;6165761;22;20001;-55
2023/05/16 10:40:05;;;;;;;51.92;29.45;;;20.00;50.70;;;;;;6158984;22;20043;-55
2023/05/16 10:42:34;;;;;;;56.55;31.75;;;20.10;50.40;;;;;;6160789;22;20088;-53
2023/05/16 10:45:14;;;;;;;32.35;17.85;;;20.10;50.30;;;;;;6159139;22;20005;-55
2023/05/16 10:47:40;;;;;;;20.98;12.88;;;20.10;51.00;;;;;;6160989;22;20378;-56
2023/05/16 10:50:06;;;;;;;13.93;9.38;;;20.10;51.40;;;;;;6264996;22;20009;-56
2023/05/16 10:52:34;;;;;;;12.70;8.73;;;20.10;51.70;;;;;;6163455;22;20086;-53
2023/05/16 10:55:03;;;;;;;8.13;6.70;;;20.10;51.70;;;;;;6165560;22;20055;-55
2023/05/16 10:57:32;;;;;;;7.95;5.40;;;20.10;53.00;;;;;;6166407;22;20097;-56
2023/05/16 11:00:00;;;;;;;7.97;4.85;;;20.10;53.40;;;;;;6163010;22;20020;-56
2023/05/16 11:02:32;;;;;;;8.52;5.15;;;20.10;53.90;;;;;;6159396;22;20239;-57
2023/05/16 11:04:59;;;;;;;6.97;4.43;;;20.10;55.00;;;;;;6160639;22;20100;-54
2023/05/16 11:07:33;;;;;;;4.93;3.85;;;20.10;56.20;;;;;;6166727;22;20017;-51
2023/05/16 11:10:05;;;;;;;5.32;3.83;;;20.00;57.10;;;;;;6167590;22;20059;-54
2023/05/16 11:12:37;;;;;;;6.53;3.92;;;20.00;57.40;;;;;;6159946;22;20720;-54
2023/05/16 11:15:18;;;;;;;6.68;3.85;;;20.00;57.90;;;;;;6163300;22;20005;-55
2023/05/16 11:17:44;;;;;;;4.90;4.25;;;19.90;58.40;;;;;;6159528;22;20689;-55
2023/05/16 11:20:25;;;;;;;4.90;3.90;;;19.90;58.90;;;;;;6167589;22;20009;-53
2023/05/16 11:23:10;;;;;;;6.15;3.65;;;19.90;60.00;;;;;;6266132;22;20056;-54
2023/05/16 11:25:40;;;;;;;4.45;3.70;;;19.90;59.70;;;;;;6165850;22;20009;-57
2023/05/16 11:28:09;;;;;;;5.28;3.50;;;19.80;60.00;;;;;;6167656;22;20032;-54
2023/05/16 11:30:35;;;;;;;5.55;4.65;;;19.80;60.40;;;;;;6159271;22;20013;-56
2023/05/16 11:33:01;;;;;;;5.10;3.83;;;19.70;60.70;;;;;;6160405;23;20005;-55
2023/05/16 11:35:27;;;;;;;4.68;3.80;;;19.70;61.60;;;;;;6160240;22;20016;-57
2023/05/16 11:37:53;;;;;;;6.32;3.88;;;19.70;62.20;;;;;;6165003;22;20417;-54
2023/05/16 11:40:19;;;;;;;7.53;4.13;;;19.70;63.00;;;;;;6160589;22;20013;-56
2023/05/16 11:42:49;;;;;;;5.57;4.07;;;19.70;62.90;;;;;;6159355;22;20001;-53
2023/05/16 11:45:21;;;;;;;4.90;4.15;;;19.70;63.10;;;;;;6161085;22;20534;-55
2023/05/16 11:47:48;;;;;;;6.50;4.07;;;19.70;62.70;;;;;;6164128;22;20388;-53
2023/05/16 11:50:16;;;;;;;5.05;4.10;;;19.80;61.90;;;;;;6159208;22;20004;-54
2023/05/16 11:52:52;;;;;;;6.95;3.63;;;19.80;62.10;;;;;;6160536;22;20008;-53
2023/05/16 11:55:23;;;;;;;5.47;4.32;;;19.80;61.40;;;;;;6156067;22;20001;-56
2023/05/16 11:57:50;;;;;;;;;;;19.90;61.60;;;;;;6161325;22;20011;-53
2023/05/16 12:00:18;;;;;;;8.10;3.63;;;19.90;60.40;;;;;;6158737;22;20251;-54
2023/05/16 12:02:46;;;;;;;6.28;3.53;;;19.90;60.00;;;;;;6158193;22;20012;-55
2023/05/16 12:05:13;;;;;;;9.20;3.90;;;20.00;59.60;;;;;;6158598;22;20078;-56
2023/05/16 12:07:39;;;;;;;4.95;3.38;;;20.00;59.80;;;;;;6158526;22;20012;-55
2023/05/16 12:10:09;;;;;;;5.40;3.50;;;20.00;59.30;;;;;;6159081;22;20104;-55
2023/05/16 12:12:37;;;;;;;4.63;3.03;;;20.00;59.70;;;;;;6156955;22;20094;-56
2023/05/16 12:15:05;;;;;;;4.60;3.20;;;20.00;60.10;;;;;;6162271;22;20043;-56
2023/05/16 12:17:31;;;;;;;6.25;3.70;;;20.00;60.50;;;;;;6162927;22;20011;-53
2023/05/16 12:19:57;;;;;;;7.65;3.75;;;20.00;61.20;;;;;;6163566;22;20005;-53
2023/05/16 12:22:24;;;;;;;7.28;3.88;;;20.00;60.90;;;;;;6159851;22;20117;-53
2023/05/16 12:24:50;;;;;;;5.68;3.58;;;19.90;61.10;;;;;;6162875;22;20337;-54
2023/05/16 12:27:24;;;;;;;11.25;3.45;;;20.00;61.10;;;;;;6163232;22;20008;-54
2023/05/16 12:29:50;;;;;;;5.45;3.60;;;20.00;59.70;;;;;;6162635;22;20105;-53
2023/05/16 12:32:20;;;;;;;5.93;3.58;;;20.00;58.50;;;;;;6162698;22;20029;-56
2023/05/16 12:34:50;;;;;;;4.68;3.30;;;20.00;56.60;;;;;;6164547;22;20005;-53
2023/05/16 12:37:16;;;;;;;6.18;3.33;;;20.10;55.10;;;;;;6159904;22;20081;-53
2023/05/16 12:39:42;;;;;;;8.82;3.45;;;20.20;54.50;;;;;;6161527;22;20081;-54
2023/05/16 12:42:10;;;;;;;4.72;3.22;;;20.20;53.40;;;;;;6159326;22;20008;-54